This is the latest recevied weather packets stored in our database for station/object K3CHZ. If no packets are shown the sender has not sent any weather packets the latest 10 day(s).
| Time | Temp. | Humidity | Pressure | Rain* | Wind** | Luminosity | Snow |
|---|---|---|---|---|---|---|---|
| 1778181136 | 18.33° C | 43% | 1009.2 hPa | 0 mm | - | - | - |
| 1778180836 | 17.78° C | 44% | 1009.3 hPa | 0 mm | - | - | - |
| 1778180536 | 18.33° C | 44% | 1009.3 hPa | 0 mm | - | - | - |
| 1778180236 | 18.33° C | 45% | 1009.3 hPa | 0 mm | - | - | - |
| 1778179936 | 18.33° C | 41% | 1009.4 hPa | 0 mm | - | - | - |
| 1778179636 | 17.78° C | 45% | 1009.4 hPa | 0 mm | - | - | - |
| 1778179336 | 17.78° C | 45% | 1009.4 hPa | 0 mm | - | - | - |
| 1778179036 | 17.78° C | 43% | 1009.6 hPa | 0 mm | - | - | - |
| 1778178736 | 17.78° C | 39% | 1009.7 hPa | 0 mm | - | - | - |
| 1778178438 | 17.78° C | 41% | 1009.7 hPa | 0 mm | - | - | - |
| 1778178137 | 17.78° C | 41% | 1009.7 hPa | 0 mm | - | - | - |
| 1778177836 | 17.78° C | 40% | 1009.9 hPa | 0 mm | - | - | - |
| 1778177536 | 17.78° C | 45% | 1009.7 hPa | 0 mm | - | - | - |
| 1778177236 | 17.78° C | 44% | 1009.9 hPa | 0 mm | - | - | - |
| 1778176935 | 17.78° C | 42% | 1010.1 hPa | 0 mm | - | - | - |
| 1778176637 | 17.78° C | 45% | 1010.1 hPa | 0 mm | - | - | - |
| 1778176337 | 17.22° C | 44% | 1010.2 hPa | 0 mm | - | - | - |
| 1778176036 | 17.22° C | 46% | 1010.3 hPa | 0 mm | - | - | - |
| 1778175736 | 17.22° C | 46% | 1010.4 hPa | 0 mm | - | - | - |
| 1778175436 | 17.22° C | 46% | 1010.5 hPa | 0 mm | - | - | - |
| 1778175136 | 17.22° C | 46% | 1010.5 hPa | 0 mm | - | - | - |
| 1778174836 | 16.67° C | 46% | 1010.5 hPa | 0 mm | - | - | - |
| 1778174542 | 16.67° C | 46% | 1010.5 hPa | 0 mm | - | - | - |
| 1778174242 | 16.67° C | 41% | 1010.6 hPa | 0 mm | - | - | - |
| 1778173942 | 16.67° C | 53% | 1010.4 hPa | 0 mm | - | - | - |
* Rain latest hour (hover to see other rain measurements)
** Current wind speed in m/s (hover to see current wind gust speed)